Time;durP1;ratioP1;P1;durP2;ratioP2;P2;SDS_P1;SDS_P2;PMS_P1;PMS_P2;Temp;Humidity;BMP_temperature;BMP_pressure;BME280_temperature;BME280_humidity;BME280_pressure;Samples;Min_cycle;Max_cycle;Signal;HPM_P1;HPM_P2
2023/10/07 00:00:56;0.00;0.00;0.62;0.00;0.00;0.62;4.37;3.37;;;26.60;29.40;;;;;;2276991;60;20389;-66
2023/10/07 00:03:42;0.00;0.00;0.62;0.00;0.00;0.62;5.17;3.07;;;26.60;29.40;;;;;;2276849;60;20357;-66
2023/10/07 00:06:27;0.00;0.00;0.62;0.00;0.00;0.62;4.70;3.67;;;26.60;29.40;;;;;;2277135;60;20468;-66
2023/10/07 00:09:15;0.00;0.00;0.62;0.00;0.00;0.62;5.63;2.93;;;26.60;29.40;;;;;;2273293;60;20349;-65
2023/10/07 00:12:02;0.00;0.00;0.62;0.00;0.00;0.62;4.53;3.17;;;26.60;29.40;;;;;;2276764;60;20920;-66
2023/10/07 00:14:47;0.00;0.00;0.62;0.00;0.00;0.62;4.20;2.50;;;26.60;29.40;;;;;;2277213;60;20405;-65
2023/10/07 00:17:31;0.00;0.00;0.62;0.00;0.00;0.62;5.20;3.07;;;26.60;29.40;;;;;;2276703;60;20423;-66
2023/10/07 00:20:20;0.00;0.00;0.62;0.00;0.00;0.62;4.07;3.20;;;26.60;29.40;;;;;;2276728;60;20409;-65
2023/10/07 00:23:09;0.00;0.00;0.62;0.00;0.00;0.62;4.30;2.60;;;26.60;29.40;;;;;;2276769;60;20401;-65
2023/10/07 00:25:56;0.00;0.00;0.62;0.00;0.00;0.62;4.30;2.90;;;26.60;29.40;;;;;;2276875;60;20419;-65
2023/10/07 00:28:44;0.00;0.00;0.62;0.00;0.00;0.62;4.77;3.20;;;26.60;29.40;;;;;;2276639;60;20411;-66
2023/10/07 00:31:32;0.00;0.00;0.62;0.00;0.00;0.62;4.83;3.07;;;26.60;29.40;;;;;;2273560;60;20377;-66
2023/10/07 00:34:27;0.00;0.00;0.62;0.00;0.00;0.62;4.07;2.60;;;26.60;29.40;;;;;;2273264;60;20447;-65
2023/10/07 00:37:15;0.00;0.00;0.62;0.00;0.00;0.62;6.53;2.90;;;26.60;29.40;;;;;;2273663;60;20383;-65
2023/10/07 00:40:13;0.00;0.00;0.62;0.00;0.00;0.62;3.80;2.60;;;26.60;29.40;;;;;;2269634;61;20390;-65
2023/10/07 00:42:58;0.00;0.00;0.62;0.00;0.00;0.62;5.73;2.57;;;26.60;29.40;;;;;;2272911;61;20812;-69
2023/10/07 00:45:44;0.00;0.00;0.62;0.00;0.00;0.62;4.97;2.50;;;26.60;29.40;;;;;;2272828;61;20362;-66
2023/10/07 00:48:42;0.00;0.00;0.62;0.00;0.00;0.62;3.60;2.60;;;26.60;29.50;;;;;;2272339;61;20413;-65
2023/10/07 00:51:34;0.00;0.00;0.62;0.00;0.00;0.62;6.43;2.97;;;26.60;29.50;;;;;;2272785;61;20440;-65
2023/10/07 00:54:38;0.00;0.00;0.62;0.00;0.00;0.62;5.27;2.60;;;26.60;29.50;;;;;;2272521;61;20398;-66
2023/10/07 00:57:47;0.00;0.00;0.62;0.00;0.00;0.62;4.90;2.80;;;26.60;29.50;;;;;;2269458;61;20397;-66
2023/10/07 01:00:42;0.00;0.00;0.62;0.00;0.00;0.62;6.73;3.00;;;26.50;29.40;;;;;;2269585;61;20390;-66
2023/10/07 01:06:22;0.00;0.00;0.62;0.00;0.00;0.62;5.67;2.73;;;26.50;29.50;;;;;;2272983;61;20365;-65
2023/10/07 01:09:22;0.00;0.00;0.62;0.00;0.00;0.62;3.67;3.00;;;26.50;29.50;;;;;;2272655;61;20890;-65
2023/10/07 01:12:08;0.00;0.00;0.62;0.00;0.00;0.62;2.70;1.83;;;26.50;29.50;;;;;;2269519;61;20382;-65
2023/10/07 01:14:53;0.00;0.00;0.62;0.00;0.00;0.62;3.90;2.40;;;26.50;29.50;;;;;;2269376;61;21057;-65
2023/10/07 01:17:41;0.00;0.00;0.62;0.00;0.00;0.62;4.77;3.00;;;26.50;29.50;;;;;;2266585;61;20775;-65
2023/10/07 01:20:34;0.00;0.00;0.62;0.00;0.00;0.62;3.23;2.40;;;26.50;29.50;;;;;;2272534;61;20434;-65
2023/10/07 01:23:24;0.00;0.00;0.62;0.00;0.00;0.62;3.30;2.50;;;26.50;29.50;;;;;;2272721;61;20378;-65
2023/10/07 01:26:15;0.00;0.00;0.62;0.00;0.00;0.62;3.20;2.43;;;26.50;29.50;;;;;;2272500;61;20795;-66
2023/10/07 01:29:12;0.00;0.00;0.62;0.00;0.00;0.62;4.47;2.60;;;26.50;29.50;;;;;;2272215;61;20940;-66
2023/10/07 01:32:03;0.00;0.00;0.62;0.00;0.00;0.62;3.23;2.63;;;26.50;29.60;;;;;;2270797;57;20381;-65
2023/10/07 01:34:48;0.00;0.00;0.62;0.00;0.00;0.62;2.57;2.30;;;26.50;29.60;;;;;;2266634;60;20408;-68
2023/10/07 01:37:43;0.00;0.00;0.62;0.00;0.00;0.62;3.23;2.20;;;26.50;29.60;;;;;;2265804;61;20405;-67
2023/10/07 01:40:44;0.00;0.00;0.62;0.00;0.00;0.62;3.10;2.07;;;26.50;29.60;;;;;;2278657;39;20945;-66
2023/10/07 01:43:28;0.00;0.00;0.62;0.00;0.00;0.62;3.80;2.33;;;26.50;29.60;;;;;;2270595;61;20374;-64
2023/10/07 01:46:19;0.00;0.00;0.62;0.00;0.00;0.62;5.40;2.70;;;26.50;29.60;;;;;;2272666;61;20807;-65
2023/10/07 01:49:07;0.00;0.00;0.62;0.00;0.00;0.62;3.40;2.37;;;26.50;29.60;;;;;;2272165;61;20424;-65
2023/10/07 01:51:53;0.00;0.00;0.62;0.00;0.00;0.62;2.97;2.53;;;26.50;29.60;;;;;;2272675;61;20378;-65
2023/10/07 01:54:37;0.00;0.00;0.62;0.00;0.00;0.62;3.63;2.40;;;26.50;29.60;;;;;;2272488;61;20485;-66
2023/10/07 01:57:24;0.00;0.00;0.62;0.00;0.00;0.62;3.23;2.40;;;26.50;29.70;;;;;;2272718;61;20370;-66
2023/10/07 02:00:11;0.00;0.00;0.62;0.00;0.00;0.62;4.47;2.63;;;26.50;29.60;;;;;;2271913;61;20382;-65
2023/10/07 02:03:01;0.00;0.00;0.62;0.00;0.00;0.62;3.80;2.10;;;26.50;29.70;;;;;;2272305;61;20412;-65
2023/10/07 02:05:48;0.00;0.00;0.62;0.00;0.00;0.62;4.20;2.93;;;26.50;29.70;;;;;;2272567;61;20354;-67
2023/10/07 02:08:33;0.00;0.00;0.62;0.00;0.00;0.62;4.27;2.90;;;26.50;29.70;;;;;;2272084;61;20397;-66
2023/10/07 02:11:31;0.00;0.00;0.62;0.00;0.00;0.62;3.93;2.50;;;26.50;29.70;;;;;;2272583;61;20507;-65
2023/10/07 02:14:20;0.00;0.00;0.62;0.00;0.00;0.62;3.87;2.70;;;26.50;29.70;;;;;;2272783;61;20613;-65
2023/10/07 02:17:12;0.00;0.00;0.62;0.00;0.00;0.62;4.33;3.10;;;26.50;29.70;;;;;;2272492;61;20428;-64
2023/10/07 02:20:09;0.00;0.00;0.62;0.00;0.00;0.62;3.57;2.50;;;26.50;29.70;;;;;;2272138;61;20886;-65
2023/10/07 02:22:53;0.00;0.00;0.62;0.00;0.00;0.62;3.80;2.40;;;26.50;29.70;;;;;;2271927;61;20365;-65
2023/10/07 02:25:49;0.00;0.00;0.62;0.00;0.00;0.62;3.50;2.63;;;26.50;29.70;;;;;;2272531;61;20365;-65
2023/10/07 02:28:34;0.00;0.00;0.62;0.00;0.00;0.62;4.37;2.73;;;26.50;29.70;;;;;;2272128;61;20370;-65
2023/10/07 02:31:21;0.00;0.00;0.62;0.00;0.00;0.62;2.97;2.50;;;26.40;29.70;;;;;;2272388;61;20386;-65
2023/10/07 02:34:08;0.00;0.00;0.62;0.00;0.00;0.62;4.87;3.00;;;26.50;29.70;;;;;;2272386;61;20488;-65
2023/10/07 02:37:03;0.00;0.00;0.62;0.00;0.00;0.62;3.30;2.70;;;26.50;29.70;;;;;;2272755;61;20361;-65
2023/10/07 02:39:50;0.00;0.00;0.62;0.00;0.00;0.62;3.73;2.80;;;26.40;29.70;;;;;;2274780;60;21029;-65
2023/10/07 02:42:34;0.00;0.00;0.62;0.00;0.00;0.62;3.03;2.23;;;26.40;29.70;;;;;;2276565;60;20425;-65
2023/10/07 02:48:10;0.00;0.00;0.62;0.00;0.00;0.62;3.50;2.30;;;26.40;29.80;;;;;;2276999;60;20731;-65
2023/10/07 02:51:06;0.00;0.00;0.62;0.00;0.00;0.62;3.20;2.40;;;26.40;29.70;;;;;;2336067;39;20377;-66
2023/10/07 02:53:58;0.00;0.00;0.62;0.00;0.00;0.62;3.10;2.37;;;26.50;29.80;;;;;;2263184;61;20446;-65
2023/10/07 02:56:44;0.00;0.00;0.62;0.00;0.00;0.62;5.20;2.20;;;26.40;29.80;;;;;;2265277;61;20363;-65
2023/10/07 02:59:31;0.00;0.00;0.62;0.00;0.00;0.62;7.40;2.87;;;26.40;29.80;;;;;;2261336;61;20407;-65
2023/10/07 03:07:50;0.00;0.00;0.62;0.00;0.00;0.62;7.03;3.10;;;26.40;29.80;;;;;;2264674;61;20371;-66
2023/10/07 03:10:44;0.00;0.00;0.62;0.00;0.00;0.62;4.53;2.70;;;26.40;29.80;;;;;;2264994;61;20414;-65
2023/10/07 03:13:28;0.00;0.00;0.62;0.00;0.00;0.62;6.07;2.93;;;26.40;29.80;;;;;;2264834;61;20360;-65
2023/10/07 03:19:06;0.00;0.00;0.62;0.00;0.00;0.62;4.17;2.43;;;26.40;30.30;;;;;;2261255;61;20383;-66
2023/10/07 03:24:48;0.00;0.00;0.62;0.00;0.00;0.62;4.20;2.33;;;26.40;29.80;;;;;;2264683;61;20356;-65
2023/10/07 03:27:39;0.00;0.00;0.62;0.00;0.00;0.62;3.80;2.30;;;26.40;29.80;;;;;;2265126;61;20371;-66
2023/10/07 03:30:27;0.00;0.00;0.62;0.00;0.00;0.62;2.87;2.07;;;26.40;29.80;;;;;;2264618;61;20359;-65
2023/10/07 03:33:15;0.00;0.00;0.62;0.00;0.00;0.62;2.93;2.27;;;26.40;29.80;;;;;;2264992;61;20448;-66
2023/10/07 03:38:55;0.00;0.00;0.62;0.00;0.00;0.62;5.30;2.20;;;26.40;29.90;;;;;;2261162;61;20379;-67
2023/10/07 03:41:47;0.00;0.00;0.62;0.00;0.00;0.62;3.10;2.30;;;26.40;29.90;;;;;;2264833;61;20826;-67
2023/10/07 03:44:31;0.00;0.00;0.62;0.00;0.00;0.62;3.20;2.27;;;26.40;29.90;;;;;;2264672;61;20401;-65
2023/10/07 03:47:16;0.00;0.00;0.62;0.00;0.00;0.62;5.03;2.87;;;26.40;29.90;;;;;;2264756;61;20360;-66
2023/10/07 03:50:20;0.00;0.00;0.62;0.00;0.00;0.62;3.90;2.30;;;26.40;29.90;;;;;;2264625;61;20351;-64
2023/10/07 03:53:05;0.00;0.00;0.62;0.00;0.00;0.62;5.10;2.50;;;26.40;29.90;;;;;;2268162;61;20375;-65
2023/10/07 03:55:51;0.00;0.00;0.62;0.00;0.00;0.62;2.77;2.27;;;26.40;29.90;;;;;;2268581;60;20897;-65
2023/10/07 03:58:41;0.00;0.00;0.62;0.00;0.00;0.62;4.47;2.40;;;26.40;30.00;;;;;;2268457;61;20368;-65
2023/10/07 04:01:27;0.00;0.00;0.62;0.00;0.00;0.62;4.40;3.00;;;26.40;30.00;;;;;;2268593;61;20462;-66
2023/10/07 04:04:12;0.00;0.00;0.62;0.00;0.00;0.62;3.23;2.50;;;26.40;30.00;;;;;;2268902;61;20344;-69
2023/10/07 04:07:00;0.00;0.00;0.62;0.00;0.00;0.62;2.70;2.10;;;26.40;30.00;;;;;;2268773;61;20395;-67
2023/10/07 04:09:45;0.00;0.00;0.62;0.00;0.00;0.62;4.73;2.60;;;26.40;30.00;;;;;;2268602;61;20406;-66
2023/10/07 04:12:32;0.00;0.00;0.62;0.00;0.00;0.62;3.20;2.30;;;26.40;30.00;;;;;;2268588;61;20383;-65
2023/10/07 04:15:18;0.00;0.00;0.62;0.00;0.00;0.62;5.90;2.50;;;26.40;30.00;;;;;;2268710;61;20363;-65
2023/10/07 04:18:03;0.00;0.00;0.62;0.00;0.00;0.62;4.47;2.27;;;26.40;30.00;;;;;;2268450;61;20402;-66
2023/10/07 04:20:57;0.00;0.00;0.62;0.00;0.00;0.62;3.93;2.70;;;26.40;30.60;;;;;;2268610;61;20445;-65
2023/10/07 04:23:44;0.00;0.00;0.62;0.00;0.00;0.62;3.47;2.43;;;26.30;30.00;;;;;;2268678;61;20367;-65
2023/10/07 04:26:28;0.00;0.00;0.62;0.00;0.00;0.62;3.60;2.30;;;26.30;30.00;;;;;;2268759;61;20367;-65
2023/10/07 04:29:17;0.00;0.00;0.62;0.00;0.00;0.62;3.70;2.97;;;26.30;30.00;;;;;;2268228;61;20360;-66
2023/10/07 04:32:19;0.00;0.00;0.62;0.00;0.00;0.62;3.20;2.27;;;26.40;30.20;;;;;;2268632;61;20375;-66
2023/10/07 04:38:00;0.00;0.00;0.62;0.00;0.00;0.62;3.10;2.10;;;26.40;30.20;;;;;;2268273;61;20456;-67
2023/10/07 04:41:30;0.00;0.00;0.62;0.00;0.00;0.62;4.43;2.20;;;26.30;30.10;;;;;;2586833;45;20408;-65
2023/10/07 04:44:20;0.00;0.00;0.62;0.00;0.00;0.62;3.90;2.57;;;26.30;30.10;;;;;;2260450;61;20395;-66
2023/10/07 04:50:37;0.00;0.00;0.62;0.00;0.00;0.62;4.23;2.37;;;26.30;30.20;;;;;;2255679;55;20943;31
2023/10/07 04:53:25;0.00;0.00;0.62;0.00;0.00;0.62;4.97;2.43;;;26.30;30.20;;;;;;2266351;61;20372;-66
2023/10/07 04:56:20;0.00;0.00;0.62;0.00;0.00;0.62;4.10;2.90;;;26.30;30.20;;;;;;2264629;61;20407;-66
2023/10/07 04:59:09;0.00;0.00;0.62;0.00;0.00;0.62;4.70;3.10;;;26.30;30.30;;;;;;2263994;61;20399;-65
2023/10/07 05:02:01;0.00;0.00;0.62;0.00;0.00;0.62;3.93;2.37;;;26.30;30.20;;;;;;2264077;61;20374;-66
2023/10/07 05:04:50;0.00;0.00;0.62;0.00;0.00;0.62;2.77;2.27;;;26.30;30.30;;;;;;2268632;61;20363;-65
2023/10/07 05:07:38;0.00;0.00;0.62;0.00;0.00;0.62;4.80;2.90;;;26.30;30.30;;;;;;2268565;61;20422;-65
2023/10/07 05:10:24;0.00;0.00;0.62;0.00;0.00;0.62;4.40;2.80;;;26.30;30.30;;;;;;2268626;61;20371;-67
2023/10/07 05:13:10;0.00;0.00;0.62;0.00;0.00;0.62;3.30;2.23;;;26.30;30.30;;;;;;2268511;61;20386;-65
2023/10/07 05:15:55;0.00;0.00;0.62;0.00;0.00;0.62;5.00;2.70;;;26.30;30.40;;;;;;2268753;61;20367;-65
2023/10/07 05:18:41;0.00;0.00;0.62;0.00;0.00;0.62;4.10;2.43;;;26.30;30.40;;;;;;2268157;61;20401;-66
2023/10/07 05:21:28;0.00;0.00;0.62;0.00;0.00;0.62;3.87;2.60;;;26.30;30.40;;;;;;2268571;61;20419;-66
2023/10/07 05:24:12;0.00;0.00;0.62;0.00;0.00;0.62;2.50;2.00;;;26.30;30.40;;;;;;2268476;61;20776;-66
2023/10/07 05:26:59;0.00;0.00;0.62;0.00;0.00;0.62;3.80;2.63;;;26.30;30.40;;;;;;2268681;61;20375;-66
2023/10/07 05:29:46;0.00;0.00;0.62;0.00;0.00;0.62;3.27;2.50;;;26.30;30.40;;;;;;2268101;61;20394;-66
2023/10/07 05:32:35;0.00;0.00;0.62;0.00;0.00;0.62;3.93;2.50;;;26.30;30.40;;;;;;2265346;61;20414;-67
2023/10/07 05:35:20;0.00;0.00;0.62;0.00;0.00;0.62;4.43;2.50;;;26.30;30.40;;;;;;2268356;61;20774;-65
2023/10/07 05:38:09;0.00;0.00;0.62;0.00;0.00;0.62;4.40;3.10;;;26.30;30.50;;;;;;2268000;61;20355;-66
2023/10/07 05:44:11;0.00;0.00;0.62;0.00;0.00;0.62;3.00;2.40;;;26.30;30.50;;;;;;2277691;60;20428;-65
2023/10/07 05:46:55;0.00;0.00;0.62;0.00;0.00;0.62;5.13;3.17;;;26.30;30.50;;;;;;2276781;60;20889;-65
2023/10/07 05:49:41;0.00;0.00;0.62;0.00;0.00;0.62;2.93;2.63;;;26.30;30.60;;;;;;2275791;60;20919;-65
2023/10/07 05:55:36;0.00;0.00;0.62;0.00;0.00;0.62;4.93;2.70;;;26.30;30.60;;;;;;2274519;61;20909;-65
2023/10/07 05:58:21;0.00;0.00;0.62;0.00;0.00;0.62;5.87;3.50;;;26.30;30.60;;;;;;2272443;61;20390;-65
2023/10/07 06:01:09;0.00;0.00;0.62;0.00;0.00;0.62;6.20;3.30;;;26.30;30.60;;;;;;2272764;61;20466;-65
2023/10/07 06:03:54;0.00;0.00;0.62;0.00;0.00;0.62;4.10;3.67;;;26.30;30.70;;;;;;2272754;61;20374;-65
2023/10/07 06:06:42;0.00;0.00;0.62;0.00;0.00;0.62;4.67;3.30;;;26.30;30.70;;;;;;2272796;61;20443;-65
2023/10/07 06:09:28;0.00;0.00;0.62;0.00;0.00;0.62;5.50;4.13;;;26.30;30.80;;;;;;2272452;61;20398;-65
2023/10/07 06:12:15;0.00;0.00;0.62;0.00;0.00;0.62;4.83;3.60;;;26.30;30.80;;;;;;2272580;61;20377;-66
2023/10/07 06:15:00;0.00;0.00;0.62;0.00;0.00;0.62;4.50;3.70;;;26.30;30.90;;;;;;2272620;61;20362;-65
2023/10/07 06:17:45;0.00;0.00;0.62;0.00;0.00;0.62;5.80;3.93;;;26.30;30.90;;;;;;2272819;61;20729;-65
2023/10/07 06:20:37;0.00;0.00;0.62;0.00;0.00;0.62;8.20;3.90;;;26.30;30.80;;;;;;2272068;61;20525;-65
2023/10/07 06:23:25;0.00;0.00;0.62;0.00;0.00;0.62;6.60;4.70;;;26.30;30.90;;;;;;2272679;61;20768;-65
2023/10/07 06:26:11;0.00;0.00;0.62;0.00;0.00;0.62;5.07;4.33;;;26.30;30.90;;;;;;2272785;61;20370;-66
2023/10/07 06:29:05;0.00;0.00;0.62;0.00;0.00;0.62;4.50;3.80;;;26.30;30.90;;;;;;2272108;61;20363;-65
2023/10/07 06:31:55;0.00;0.00;0.62;0.00;0.00;0.62;6.63;5.00;;;26.30;30.90;;;;;;2272443;61;20402;-65
2023/10/07 06:34:41;0.00;0.00;0.62;0.00;0.00;0.62;4.93;4.43;;;26.30;30.90;;;;;;2272634;61;20377;-65
2023/10/07 06:37:28;0.00;0.00;0.62;0.00;0.00;0.62;8.07;4.90;;;26.30;30.90;;;;;;2272595;61;20358;-65
2023/10/07 06:40:23;0.00;0.00;0.62;0.00;0.00;0.62;6.80;4.60;;;26.30;30.90;;;;;;2270848;61;20449;-65
2023/10/07 06:43:14;0.00;0.00;0.62;0.00;0.00;0.62;5.80;5.00;;;26.30;30.90;;;;;;2268324;61;20406;-65
2023/10/07 06:46:01;0.00;0.00;0.62;0.00;0.00;0.62;7.17;5.17;;;26.30;30.90;;;;;;2268455;61;20493;-65
2023/10/07 06:48:50;0.00;0.00;0.62;0.00;0.00;0.62;7.23;4.93;;;26.30;30.90;;;;;;2268048;61;20371;-65
2023/10/07 06:51:36;0.00;0.00;0.62;0.00;0.00;0.62;6.70;4.73;;;26.30;30.90;;;;;;2268429;61;20390;-65
2023/10/07 06:54:22;0.00;0.00;0.62;0.00;0.00;0.62;6.10;4.90;;;26.30;30.90;;;;;;2271918;61;20369;-65
2023/10/07 06:57:10;0.00;0.00;0.62;0.00;0.00;0.62;8.47;4.63;;;26.30;30.90;;;;;;2272522;61;20362;-65
2023/10/07 06:59:55;0.00;0.00;0.62;0.00;0.00;0.62;4.60;3.80;;;26.30;30.90;;;;;;2272129;61;20428;-65
2023/10/07 07:02:42;0.00;0.00;0.62;0.00;0.00;0.62;6.30;4.20;;;26.30;30.90;;;;;;2272617;61;20445;-65
2023/10/07 07:05:28;0.00;0.00;0.62;0.00;0.00;0.62;5.60;4.83;;;26.30;30.90;;;;;;2272510;61;20362;-65
2023/10/07 07:08:13;0.00;0.00;0.62;0.00;0.00;0.62;7.03;4.50;;;26.30;30.90;;;;;;2272147;61;21009;-65
2023/10/07 07:11:09;0.00;0.00;0.62;0.00;0.00;0.62;7.27;4.37;;;26.30;30.90;;;;;;2272791;61;20424;-65
2023/10/07 07:13:54;0.00;0.00;0.62;0.00;0.00;0.62;6.87;5.07;;;26.30;30.90;;;;;;2272564;61;20412;-65
2023/10/07 07:16:42;0.00;0.00;0.62;0.00;0.00;0.62;5.33;4.37;;;26.30;30.90;;;;;;2272588;61;20373;-65
2023/10/07 07:19:37;0.00;0.00;0.62;0.00;0.00;0.62;5.37;4.87;;;26.30;30.90;;;;;;2272074;61;20378;-65
2023/10/07 07:22:22;0.00;0.00;0.62;0.00;0.00;0.62;4.40;3.97;;;26.30;30.90;;;;;;2272271;61;20427;-65
2023/10/07 07:25:22;0.00;0.00;0.62;0.00;0.00;0.62;7.83;5.17;;;26.30;30.90;;;;;;2272908;61;20409;-65
2023/10/07 07:28:09;0.00;0.00;0.62;0.00;0.00;0.62;5.30;4.50;;;26.30;30.90;;;;;;2271867;61;20362;-65
2023/10/07 07:30:57;0.00;0.00;0.62;0.00;0.00;0.62;4.20;3.73;;;26.30;30.90;;;;;;2272461;60;20952;-65
2023/10/07 07:33:42;0.00;0.00;0.62;0.00;0.00;0.62;5.70;4.50;;;26.20;30.90;;;;;;2269950;61;20354;-65
2023/10/07 07:39:22;0.00;0.00;0.62;0.00;0.00;0.62;7.97;5.53;;;26.20;30.80;;;;;;2268708;61;20431;-65
2023/10/07 07:42:27;0.00;0.00;0.62;0.00;0.00;0.62;5.90;4.80;;;26.30;30.90;;;;;;2269064;61;20389;-65
2023/10/07 07:45:15;0.00;0.00;0.62;0.00;0.00;0.62;5.90;4.53;;;26.20;30.80;;;;;;2265978;61;20887;-65
2023/10/07 07:48:00;0.00;0.00;0.62;0.00;0.00;0.62;6.20;5.43;;;26.20;30.80;;;;;;2268680;61;20399;-65
2023/10/07 07:50:44;0.00;0.00;0.62;0.00;0.00;0.62;5.97;4.60;;;26.30;30.90;;;;;;2269125;61;20375;-65
2023/10/07 07:53:31;0.00;0.00;0.62;0.00;0.00;0.62;5.90;5.03;;;26.20;31.00;;;;;;2265966;61;20443;-65
2023/10/07 07:56:16;0.00;0.00;0.62;0.00;0.00;0.62;5.70;4.80;;;26.30;31.00;;;;;;2268954;61;20494;-65
2023/10/07 07:59:02;0.00;0.00;0.62;0.00;0.00;0.62;5.83;5.10;;;26.30;31.10;;;;;;2268531;61;20424;-65
2023/10/07 08:02:01;0.00;0.00;0.62;0.00;0.00;0.62;6.27;5.33;;;26.30;31.10;;;;;;2268508;61;20500;-65
2023/10/07 08:04:46;0.00;0.00;0.62;0.00;0.00;0.62;6.07;4.77;;;26.30;31.10;;;;;;2268845;61;20367;-65
2023/10/07 08:07:32;0.00;0.00;0.62;0.00;0.00;0.62;6.57;5.13;;;26.30;31.20;;;;;;2269018;61;20385;-65
2023/10/07 08:10:22;0.00;0.00;0.62;0.00;0.00;0.62;5.93;4.87;;;26.30;31.20;;;;;;2269086;61;20410;-65
2023/10/07 08:13:06;0.00;0.00;0.62;0.00;0.00;0.62;9.57;5.60;;;26.30;31.30;;;;;;2268819;61;20375;-65
2023/10/07 08:15:51;0.00;0.00;0.62;0.00;0.00;0.62;5.40;4.80;;;26.30;31.30;;;;;;2269213;61;20409;-65
2023/10/07 08:18:37;0.00;0.00;0.62;0.00;0.00;0.62;6.33;5.20;;;26.30;31.30;;;;;;2268360;61;20465;-65
2023/10/07 08:21:29;0.00;0.00;0.62;0.00;0.00;0.62;5.03;4.60;;;26.20;31.30;;;;;;2268932;61;21062;-65
2023/10/07 08:24:14;0.00;0.00;0.62;0.00;0.00;0.62;6.60;5.27;;;26.30;31.40;;;;;;2268777;61;20391;-65
2023/10/07 08:27:03;0.00;0.00;0.62;0.00;0.00;0.62;7.70;5.43;;;26.30;31.40;;;;;;2268950;61;20394;-65
2023/10/07 08:29:53;0.00;0.00;0.62;0.00;0.00;0.62;7.30;5.20;;;26.30;31.40;;;;;;2268524;61;20359;-65
2023/10/07 08:32:41;0.00;0.00;0.62;0.00;0.00;0.62;5.47;4.83;;;26.30;31.40;;;;;;2268762;61;20434;-65
2023/10/07 08:35:26;0.00;0.00;0.62;0.00;0.00;0.62;5.93;5.33;;;26.20;31.40;;;;;;2268935;61;20445;-65
2023/10/07 08:38:21;0.00;0.00;0.62;0.00;0.00;0.62;6.03;5.53;;;26.20;31.40;;;;;;2268871;61;20877;-65
2023/10/07 08:41:07;0.00;0.00;0.62;0.00;0.00;0.62;6.13;5.53;;;26.30;31.50;;;;;;2272609;61;20418;-65
2023/10/07 08:44:17;0.00;0.00;0.62;0.00;0.00;0.62;6.83;5.80;;;26.30;31.50;;;;;;2272895;60;20438;-66
2023/10/07 08:47:05;0.00;0.00;0.62;0.00;0.00;0.62;7.13;5.20;;;26.20;31.50;;;;;;2272849;61;20366;-65
2023/10/07 08:49:52;0.00;0.00;0.62;0.00;0.00;0.62;6.63;5.57;;;26.20;31.50;;;;;;2272629;61;20438;-65
2023/10/07 08:52:42;0.00;0.00;0.62;0.00;0.00;0.62;6.80;6.00;;;26.20;31.50;;;;;;2272379;61;20386;-65
2023/10/07 08:55:30;0.00;0.00;0.62;0.00;0.00;0.62;6.80;5.73;;;26.30;31.70;;;;;;2272724;61;20946;-66
2023/10/07 08:58:16;0.00;0.00;0.62;0.00;0.00;0.62;7.43;6.40;;;26.30;31.70;;;;;;2272614;61;20825;-65
2023/10/07 09:01:07;0.00;0.00;0.62;0.00;0.00;0.62;6.50;5.90;;;26.20;31.60;;;;;;2365674;39;20370;31
2023/10/07 09:03:56;0.00;0.00;0.62;0.00;0.00;0.62;8.87;7.00;;;26.30;31.70;;;;;;2258188;61;20606;-65
2023/10/07 09:06:50;0.00;0.00;0.62;0.00;0.00;0.62;6.13;5.57;;;26.30;31.70;;;;;;2256774;61;20834;-65
2023/10/07 09:09:39;0.00;0.00;0.62;0.00;0.00;0.62;7.33;6.60;;;26.20;31.70;;;;;;2256405;61;20359;-65
2023/10/07 09:12:38;0.00;0.00;0.62;0.00;0.00;0.62;6.80;6.03;;;26.20;31.70;;;;;;2256687;61;20401;-65
2023/10/07 09:15:26;0.00;0.00;0.62;0.00;0.00;0.62;7.43;6.50;;;26.30;31.80;;;;;;2256497;61;20452;-65
2023/10/07 09:18:17;0.00;0.00;0.62;0.00;0.00;0.62;9.17;7.23;;;26.20;31.80;;;;;;2256144;61;20790;-65
2023/10/07 09:21:09;0.00;0.00;0.62;0.00;0.00;0.62;7.20;6.47;;;26.30;31.80;;;;;;2256418;61;20394;-65
2023/10/07 09:23:59;0.00;0.00;0.62;0.00;0.00;0.62;8.00;6.93;;;26.20;31.80;;;;;;2256244;61;20362;-65
2023/10/07 09:26:57;0.00;0.00;0.62;0.00;0.00;0.62;7.70;6.87;;;26.20;31.90;;;;;;2256382;61;20366;-64
2023/10/07 09:29:51;0.00;0.00;0.62;0.00;0.00;0.62;9.03;7.27;;;26.30;32.00;;;;;;2256509;61;20386;-64
2023/10/07 09:32:37;0.00;0.00;0.62;0.00;0.00;0.62;8.20;7.40;;;26.20;31.90;;;;;;2256466;61;20386;-65
2023/10/07 09:35:25;0.00;0.00;0.62;0.00;0.00;0.62;7.73;6.90;;;26.20;31.90;;;;;;2256896;61;20361;-64
2023/10/07 09:38:33;0.00;0.00;0.62;0.00;0.00;0.62;8.77;7.17;;;26.20;32.00;;;;;;2256395;61;20405;-65
2023/10/07 09:41:24;0.00;0.00;0.62;0.00;0.00;0.62;9.00;6.80;;;26.30;32.10;;;;;;2256332;61;20437;-65
2023/10/07 09:44:26;0.00;0.00;0.62;0.00;0.00;0.62;7.67;6.83;;;26.30;32.10;;;;;;2256472;61;20402;-65
2023/10/07 09:47:20;0.00;0.00;0.62;0.00;0.00;0.62;8.00;7.20;;;26.30;32.10;;;;;;2256678;61;20421;-65
2023/10/07 09:50:19;0.00;0.00;0.62;0.00;0.00;0.62;7.30;6.57;;;26.20;32.10;;;;;;2256295;61;20409;-65
2023/10/07 09:53:31;0.00;0.00;0.62;0.00;0.00;0.62;9.50;7.67;;;26.30;32.20;;;;;;2256737;61;20381;-65
2023/10/07 09:56:39;0.00;0.00;0.62;0.00;0.00;0.62;7.50;6.77;;;26.20;32.20;;;;;;2256347;61;20455;-65
2023/10/07 09:59:36;0.00;0.00;0.62;0.00;0.00;0.62;7.87;7.07;;;26.20;32.20;;;;;;2256304;61;20453;-65
2023/10/07 10:02:51;0.00;0.00;0.62;0.00;0.00;0.62;7.83;7.13;;;26.20;32.30;;;;;;2256252;61;20678;-65
2023/10/07 10:05:56;0.00;0.00;0.62;0.00;0.00;0.62;7.50;6.80;;;26.30;32.30;;;;;;2256616;61;20361;-64
2023/10/07 10:08:59;0.00;0.00;0.62;0.00;0.00;0.62;9.33;6.93;;;26.30;32.40;;;;;;2256066;61;20369;-65
2023/10/07 10:12:18;0.00;0.00;0.62;0.00;0.00;0.62;8.33;6.53;;;26.20;32.30;;;;;;2256390;61;20390;-65
2023/10/07 10:18:31;0.00;0.00;0.62;0.00;0.00;0.62;7.80;7.00;;;26.30;32.40;;;;;;2256075;61;20409;-65
2023/10/07 10:21:12;0.00;0.00;0.62;0.00;0.00;0.62;7.57;6.80;;;26.30;32.50;;;;;;2256280;61;20453;-65
2023/10/07 10:24:02;0.00;0.00;0.62;0.00;0.00;0.62;11.50;7.47;;;26.30;32.50;;;;;;2256444;61;20416;-65
2023/10/07 10:26:50;0.00;0.00;0.62;0.00;0.00;0.62;8.80;7.90;;;26.30;32.50;;;;;;2256616;61;20428;-65
2023/10/07 10:29:52;0.00;0.00;0.62;0.00;0.00;0.62;7.53;6.83;;;26.30;32.50;;;;;;2256225;61;20690;-64
2023/10/07 10:32:37;0.00;0.00;0.62;0.00;0.00;0.62;8.93;7.60;;;26.30;32.60;;;;;;2256332;61;20389;-65
2023/10/07 10:35:26;0.00;0.00;0.62;0.00;0.00;0.62;8.63;7.53;;;26.30;32.60;;;;;;2256548;61;20413;-66
2023/10/07 10:38:10;0.00;0.00;0.62;0.00;0.00;0.62;8.47;7.67;;;26.30;32.60;;;;;;2252852;61;20361;-64
2023/10/07 10:40:57;0.00;0.00;0.62;0.00;0.00;0.62;8.67;7.50;;;26.30;32.60;;;;;;2256582;61;20437;-65
2023/10/07 10:43:42;0.00;0.00;0.62;0.00;0.00;0.62;7.17;6.47;;;26.30;32.60;;;;;;2256457;61;20365;-64
2023/10/07 10:46:28;0.00;0.00;0.62;0.00;0.00;0.62;8.77;7.77;;;26.30;33.30;;;;;;2256569;61;20408;-64
2023/10/07 10:49:17;0.00;0.00;0.62;0.00;0.00;0.62;9.50;7.50;;;26.30;32.60;;;;;;2256139;61;20781;-65
2023/10/07 10:52:02;0.00;0.00;0.62;0.00;0.00;0.62;8.20;7.27;;;26.30;32.60;;;;;;2256002;61;20413;-64
2023/10/07 10:54:48;0.00;0.00;0.62;0.00;0.00;0.62;6.80;6.10;;;26.30;32.60;;;;;;2256343;61;20588;-65
2023/10/07 10:57:40;0.00;0.00;0.62;0.00;0.00;0.62;8.33;7.33;;;26.30;32.60;;;;;;2256529;61;20369;-64
2023/10/07 11:00:24;0.00;0.00;0.62;0.00;0.00;0.62;9.90;8.13;;;26.30;32.60;;;;;;2256110;61;20385;-65
2023/10/07 11:03:17;0.00;0.00;0.62;0.00;0.00;0.62;7.50;6.70;;;26.30;32.60;;;;;;2255929;61;20425;-64
2023/10/07 11:06:06;0.00;0.00;0.62;0.00;0.00;0.62;8.03;7.23;;;26.30;32.70;;;;;;2252593;61;20366;-66
2023/10/07 11:08:51;0.00;0.00;0.62;0.00;0.00;0.62;7.63;6.93;;;26.30;32.70;;;;;;2252516;61;20895;-64
2023/10/07 11:11:36;0.00;0.00;0.62;0.00;0.00;0.62;10.50;7.70;;;26.30;32.70;;;;;;2249657;61;20461;-65
2023/10/07 11:14:23;0.00;0.00;0.62;0.00;0.00;0.62;7.37;6.67;;;26.30;32.70;;;;;;2253129;61;20358;-65
2023/10/07 11:17:09;0.00;0.00;0.62;0.00;0.00;0.62;8.07;7.20;;;26.30;32.70;;;;;;2252803;61;20498;-65
2023/10/07 11:19:54;0.00;0.00;0.62;0.00;0.00;0.62;7.90;7.10;;;26.30;32.70;;;;;;2252789;61;20502;-64
2023/10/07 11:22:39;0.00;0.00;0.62;0.00;0.00;0.62;7.23;6.63;;;26.30;32.70;;;;;;2253092;61;20433;-65
2023/10/07 11:25:26;0.00;0.00;0.62;0.00;0.00;0.62;6.83;6.20;;;26.30;32.70;;;;;;2252955;61;20370;-65
2023/10/07 11:28:15;0.00;0.00;0.62;0.00;0.00;0.62;7.20;6.40;;;26.30;32.80;;;;;;2252610;61;20369;-65
2023/10/07 11:31:30;0.00;0.00;0.62;0.00;0.00;0.62;6.75;6.05;;;26.30;32.70;;;;;;2325547;39;21483;31
2023/10/07 11:34:14;0.00;0.00;0.62;0.00;0.00;0.62;8.17;7.37;;;26.30;32.80;;;;;;2266805;61;20487;-65
2023/10/07 11:37:11;0.00;0.00;0.62;0.00;0.00;0.62;7.20;6.50;;;26.30;32.80;;;;;;2265089;61;20407;-65
2023/10/07 11:39:56;0.00;0.00;0.62;0.00;0.00;0.62;6.90;6.30;;;26.40;32.80;;;;;;2264444;61;20384;-65
2023/10/07 11:42:41;0.00;0.00;0.62;0.00;0.00;0.62;6.37;5.80;;;26.40;32.80;;;;;;2265128;61;20392;-65
2023/10/07 11:45:26;0.00;0.00;0.62;0.00;0.00;0.62;6.50;5.80;;;26.40;32.90;;;;;;2265159;61;20380;-65
2023/10/07 11:48:12;0.00;0.00;0.62;0.00;0.00;0.62;6.50;5.90;;;26.30;32.80;;;;;;2264801;61;20467;-65